Time;durP1;ratioP1;P1;durP2;ratioP2;P2;SDS_P1;SDS_P2;PMS_P1;PMS_P2;Temp;Humidity;BMP_temperature;BMP_pressure;BME280_temperature;BME280_humidity;BME280_pressure;Samples;Min_cycle;Max_cycle;Signal;HPM_P1;HPM_P2
2020/12/25 00:01:07;;;;;;;1.50;1.02;;;;;;;;;;6186020;23;20055;-87
2020/12/25 00:03:33;;;;;;;1.63;1.10;;;;;;;;;;6185721;23;20549;-88
2020/12/25 00:05:59;;;;;;;1.83;1.13;;;;;;;;;;6185852;23;20024;-87
2020/12/25 00:08:26;;;;;;;1.45;0.90;;;;;;;;;;6185950;23;20032;-87
2020/12/25 00:10:52;;;;;;;2.58;1.35;;;;;;;;;;6185596;23;20017;-87
2020/12/25 00:13:18;;;;;;;3.08;1.10;;;;;;;;;;6186095;23;20025;-88
2020/12/25 00:15:45;;;;;;;2.15;1.27;;;;;;;;;;6185807;23;20056;-87
2020/12/25 00:18:11;;;;;;;1.45;1.10;;;;;;;;;;6185849;23;20021;-87
2020/12/25 00:20:37;;;;;;;2.35;1.48;;;;;;;;;;6185505;23;20542;-87
2020/12/25 00:23:03;;;;;;;2.28;1.38;;;;;;;;;;6185557;23;20057;-87
2020/12/25 00:25:30;;;;;;;2.53;1.38;;;;;;;;;;6185435;23;20068;-88
2020/12/25 00:27:56;;;;;;;2.08;1.25;;;;;;;;;;6185831;23;20021;-87
2020/12/25 00:30:22;;;;;;;1.55;1.20;;;;;;;;;;6185365;23;20029;-87
2020/12/25 00:32:48;;;;;;;2.45;1.33;;;;;;;;;;6186064;23;20446;-87
2020/12/25 00:35:14;;;;;;;2.60;1.30;;;;;;;;;;6187703;23;20088;-87
2020/12/25 00:37:40;;;;;;;2.22;1.17;;;;;;;;;;6187807;23;20024;-87
2020/12/25 00:40:06;;;;;;;1.80;0.98;;;;;;;;;;6187689;23;20454;-88
2020/12/25 00:42:32;;;;;;;1.95;1.20;;;;;;;;;;6187597;23;20021;-88
2020/12/25 00:44:58;;;;;;;2.10;1.25;;;;;;;;;;6187638;23;20048;-88
2020/12/25 00:47:24;;;;;;;1.58;1.10;;;;;;;;;;6187340;23;20044;-88
2020/12/25 00:49:50;;;;;;;2.15;1.00;;;;;;;;;;6187570;23;20059;-88
2020/12/25 00:52:16;;;;;;;2.10;1.50;;;;;;;;;;6187766;23;20029;-87
2020/12/25 00:54:42;;;;;;;1.50;1.05;;;;;;;;;;6187836;23;20013;-88
2020/12/25 00:57:08;;;;;;;1.70;1.10;;;;;;;;;;6187332;23;20021;-87
2020/12/25 00:59:38;;;;;;;1.98;1.10;;;;;;;;;;6187895;23;20021;-87
2020/12/25 01:02:04;;;;;;;2.28;1.33;;;;;;;;;;6187651;23;20032;-87
2020/12/25 01:04:30;;;;;;;1.90;1.30;;;;;;;;;;6187308;23;20021;-88
2020/12/25 01:06:56;;;;;;;1.75;1.15;;;;;;;;;;6186911;23;20021;-87
2020/12/25 01:09:24;;;;;;;2.33;1.33;;;;;;;;;;6187526;23;20027;-88
2020/12/25 01:11:50;;;;;;;2.53;1.20;;;;;;;;;;6187384;23;20079;-87
2020/12/25 01:14:16;;;;;;;2.75;1.52;;;;;;;;;;6187715;23;20024;-87
2020/12/25 01:16:43;;;;;;;1.73;1.10;;;;;;;;;;6187656;23;20056;-87
2020/12/25 01:19:09;;;;;;;2.75;1.75;;;;;;;;;;6187334;23;20324;-87
2020/12/25 01:21:35;;;;;;;3.00;1.85;;;;;;;;;;6187513;23;20021;-87
2020/12/25 01:24:01;;;;;;;3.38;2.08;;;;;;;;;;6187493;23;20025;-87
2020/12/25 01:26:27;;;;;;;2.45;1.85;;;;;;;;;;6187185;23;20517;-88
2020/12/25 01:28:55;;;;;;;3.38;2.10;;;;;;;;;;6187211;23;20534;-87
2020/12/25 01:31:21;;;;;;;2.78;1.70;;;;;;;;;;6187052;23;20021;-87
2020/12/25 01:33:47;;;;;;;2.30;1.60;;;;;;;;;;6187767;23;20451;-87
2020/12/25 01:36:13;;;;;;;2.95;1.80;;;;;;;;;;6187363;23;20021;-87
2020/12/25 01:38:39;;;;;;;2.08;1.40;;;;;;;;;;6187073;23;20021;-87
2020/12/25 01:41:05;;;;;;;3.17;1.60;;;;;;;;;;6187206;23;20029;-87
2020/12/25 01:43:31;;;;;;;1.65;0.80;;;;;;;;;;6186730;23;20399;-86
2020/12/25 01:45:57;;;;;;;0.57;0.55;;;;;;;;;;6187014;23;20021;-87
2020/12/25 01:48:23;;;;;;;1.05;0.77;;;;;;;;;;6187552;23;20018;-86
2020/12/25 01:50:51;;;;;;;0.70;0.68;;;;;;;;;;6186520;23;20013;-86
2020/12/25 01:53:20;;;;;;;0.82;0.70;;;;;;;;;;6186969;23;20316;-86
2020/12/25 01:55:47;;;;;;;1.75;0.80;;;;;;;;;;6186804;23;20345;-86
2020/12/25 01:58:14;;;;;;;0.93;0.75;;;;;;;;;;6186932;23;20021;-87
2020/12/25 02:00:40;;;;;;;0.95;0.60;;;;;;;;;;6187925;23;20017;-89
2020/12/25 02:03:06;;;;;;;0.80;0.70;;;;;;;;;;6187603;22;20009;-81
2020/12/25 02:05:33;;;;;;;0.98;0.60;;;;;;;;;;6190537;23;20041;-81
2020/12/25 02:08:00;;;;;;;1.90;0.70;;;;;;;;;;6190078;23;20021;-81
2020/12/25 02:10:26;;;;;;;0.80;0.50;;;;;;;;;;6190160;23;20067;-81
2020/12/25 02:12:53;;;;;;;0.30;0.28;;;;;;;;;;6190101;23;20349;-81
2020/12/25 02:15:19;;;;;;;0.22;0.22;;;;;;;;;;6164209;23;20013;-81
2020/12/25 02:17:45;;;;;;;0.40;0.30;;;;;;;;;;6190269;23;20013;-81
2020/12/25 02:20:11;;;;;;;0.20;0.20;;;;;;;;;;6190391;23;20017;-81
2020/12/25 02:22:38;;;;;;;0.30;0.30;;;;;;;;;;6191081;23;20016;-81
2020/12/25 02:25:05;;;;;;;0.35;0.20;;;;;;;;;;6190586;23;20067;-81
2020/12/25 02:27:31;;;;;;;0.68;0.47;;;;;;;;;;6190770;23;20023;-81
2020/12/25 02:29:57;;;;;;;0.40;0.30;;;;;;;;;;6191178;23;20065;-81
2020/12/25 02:32:23;;;;;;;0.32;0.30;;;;;;;;;;6190794;23;20017;-81
2020/12/25 02:34:49;;;;;;;0.10;0.10;;;;;;;;;;6163531;23;20021;-81
2020/12/25 02:37:15;;;;;;;2.33;0.30;;;;;;;;;;6190299;23;20013;-81
2020/12/25 02:39:42;;;;;;;0.30;0.25;;;;;;;;;;6190244;23;20017;-81
2020/12/25 02:42:10;;;;;;;0.40;0.30;;;;;;;;;;6190335;23;20028;-81
2020/12/25 02:44:36;;;;;;;0.43;0.32;;;;;;;;;;6189876;23;20454;-81
2020/12/25 02:47:02;;;;;;;0.20;0.20;;;;;;;;;;6190184;23;20021;-81
2020/12/25 02:49:28;;;;;;;0.70;0.32;;;;;;;;;;6190135;23;20052;-81
2020/12/25 02:51:54;;;;;;;0.30;0.30;;;;;;;;;;6190814;23;20357;-81
2020/12/25 02:54:20;;;;;;;0.47;0.30;;;;;;;;;;6191942;23;20024;-81
2020/12/25 02:56:47;;;;;;;0.22;0.22;;;;;;;;;;6190042;23;20071;-81
2020/12/25 02:59:13;;;;;;;0.47;0.30;;;;;;;;;;6191217;23;20021;-81
2020/12/25 03:01:39;;;;;;;0.65;0.30;;;;;;;;;;6191484;23;20017;-81
2020/12/25 03:04:05;;;;;;;0.50;0.40;;;;;;;;;;6190656;23;20017;-81
2020/12/25 03:06:31;;;;;;;1.38;0.60;;;;;;;;;;6192091;23;20017;-81
2020/12/25 03:08:56;;;;;;;0.60;0.38;;;;;;;;;;6190574;23;20013;-81
2020/12/25 03:11:22;;;;;;;0.25;0.25;;;;;;;;;;6192443;23;20020;-81
2020/12/25 03:13:49;;;;;;;0.52;0.40;;;;;;;;;;6192150;23;20457;-81
2020/12/25 03:16:15;;;;;;;0.63;0.50;;;;;;;;;;6192543;23;20017;-81
2020/12/25 03:18:41;;;;;;;0.73;0.47;;;;;;;;;;6191785;23;20461;-81
2020/12/25 03:21:07;;;;;;;0.80;0.50;;;;;;;;;;6192265;23;20017;-81
2020/12/25 03:23:33;;;;;;;0.80;0.45;;;;;;;;;;6191137;23;20426;-81
2020/12/25 03:25:59;;;;;;;0.63;0.40;;;;;;;;;;6189835;23;20008;-81
2020/12/25 03:28:25;;;;;;;0.75;0.40;;;;;;;;;;6190612;23;20457;-81
2020/12/25 03:30:52;;;;;;;3.00;0.73;;;;;;;;;;6192773;23;20017;-81
2020/12/25 03:33:17;;;;;;;1.23;0.60;;;;;;;;;;6188542;23;20024;-81
2020/12/25 03:35:43;;;;;;;1.00;0.70;;;;;;;;;;6191615;23;20017;-81
2020/12/25 03:38:09;;;;;;;0.68;0.60;;;;;;;;;;6191278;23;20021;-81
2020/12/25 03:40:35;;;;;;;0.98;0.70;;;;;;;;;;6164089;23;20024;-81
2020/12/25 03:43:01;;;;;;;0.85;0.60;;;;;;;;;;6190910;23;20067;-81
2020/12/25 03:45:27;;;;;;;0.90;0.50;;;;;;;;;;6191645;23;20044;-81
2020/12/25 03:47:54;;;;;;;1.10;0.70;;;;;;;;;;6164724;23;20328;-81
2020/12/25 03:50:20;;;;;;;1.27;0.73;;;;;;;;;;6189921;23;20071;-81
2020/12/25 03:52:46;;;;;;;1.05;0.65;;;;;;;;;;6190052;23;20017;-81
2020/12/25 03:55:12;;;;;;;0.90;0.60;;;;;;;;;;6190850;23;20079;-81
2020/12/25 03:57:38;;;;;;;1.58;0.73;;;;;;;;;;6191047;23;20025;-81
2020/12/25 04:00:04;;;;;;;2.97;1.08;;;;;;;;;;6189724;23;20021;-81
2020/12/25 04:02:30;;;;;;;0.95;0.60;;;;;;;;;;6164877;23;20462;-81
2020/12/25 04:04:57;;;;;;;0.88;0.60;;;;;;;;;;6189743;23;20025;-81
2020/12/25 04:07:23;;;;;;;3.33;0.70;;;;;;;;;;6192625;23;20017;-81
2020/12/25 04:09:49;;;;;;;1.95;0.63;;;;;;;;;;6191992;23;20377;-81
2020/12/25 04:12:14;;;;;;;1.10;0.80;;;;;;;;;;6192565;23;20017;-81
2020/12/25 04:14:40;;;;;;;0.93;0.65;;;;;;;;;;6193831;23;20021;-81
2020/12/25 04:17:06;;;;;;;2.53;0.80;;;;;;;;;;6192861;23;20023;-81
2020/12/25 04:19:33;;;;;;;1.75;0.98;;;;;;;;;;6192790;23;20021;-81
2020/12/25 04:22:00;;;;;;;2.28;1.00;;;;;;;;;;6167418;23;20048;-81
2020/12/25 04:24:26;;;;;;;2.03;1.10;;;;;;;;;;6193171;23;20020;-81
2020/12/25 04:26:52;;;;;;;1.52;0.93;;;;;;;;;;6193417;23;20044;-81
2020/12/25 04:29:18;;;;;;;1.92;1.08;;;;;;;;;;6194551;23;20044;-81
2020/12/25 04:31:45;;;;;;;3.05;1.10;;;;;;;;;;6193401;23;20013;-81
2020/12/25 04:34:10;;;;;;;2.63;1.30;;;;;;;;;;6193640;23;20387;-81
2020/12/25 04:36:36;;;;;;;2.60;1.20;;;;;;;;;;6193519;23;20024;-81
2020/12/25 04:39:05;;;;;;;2.38;1.10;;;;;;;;;;6193184;23;20096;-81
2020/12/25 04:41:31;;;;;;;2.38;1.30;;;;;;;;;;6166160;23;20017;-81
2020/12/25 04:43:57;;;;;;;2.33;1.30;;;;;;;;;;6193878;23;20026;-81
2020/12/25 04:46:23;;;;;;;2.33;1.30;;;;;;;;;;6164992;23;20031;-82
2020/12/25 04:48:49;;;;;;;2.80;1.77;;;;;;;;;;6192154;23;20017;-81
2020/12/25 04:51:15;;;;;;;1.90;1.20;;;;;;;;;;6193680;23;20024;-81
2020/12/25 04:53:41;;;;;;;2.75;1.63;;;;;;;;;;6205482;23;20017;-81
2020/12/25 04:56:08;;;;;;;2.35;1.30;;;;;;;;;;6203441;23;20017;-81
2020/12/25 04:58:34;;;;;;;3.28;1.50;;;;;;;;;;6204774;23;20016;-81
2020/12/25 05:01:04;;;;;;;2.08;1.20;;;;;;;;;;6192459;23;20028;-81
2020/12/25 05:03:34;;;;;;;2.17;1.17;;;;;;;;;;6190644;23;20375;-81
2020/12/25 05:06:04;;;;;;;3.00;1.75;;;;;;;;;;6191411;23;20017;-81
2020/12/25 05:08:36;;;;;;;3.80;1.80;;;;;;;;;;6190791;23;20016;-81
2020/12/25 05:11:02;;;;;;;4.50;2.72;;;;;;;;;;6191373;23;20020;-81
2020/12/25 05:13:29;;;;;;;3.78;2.20;;;;;;;;;;6191291;23;20438;-81
2020/12/25 05:15:55;;;;;;;4.60;2.05;;;;;;;;;;6191140;23;20013;-81
2020/12/25 05:18:23;;;;;;;4.13;1.90;;;;;;;;;;6190150;23;20438;-81
2020/12/25 05:20:52;;;;;;;3.33;1.38;;;;;;;;;;6190562;23;20024;-81
2020/12/25 05:23:18;;;;;;;2.13;1.10;;;;;;;;;;6191415;23;20024;-81
2020/12/25 05:25:46;;;;;;;2.30;1.30;;;;;;;;;;6193281;23;20017;-81
2020/12/25 05:28:13;;;;;;;2.05;1.23;;;;;;;;;;6189616;23;20013;-81
2020/12/25 05:30:43;;;;;;;1.92;1.17;;;;;;;;;;6190143;23;20017;-81
2020/12/25 05:33:10;;;;;;;1.88;0.95;;;;;;;;;;6189946;23;20020;-81
2020/12/25 05:35:37;;;;;;;2.50;1.10;;;;;;;;;;6163571;23;20028;-81
2020/12/25 05:38:09;;;;;;;2.60;1.30;;;;;;;;;;6189769;23;20021;-81
2020/12/25 05:40:41;;;;;;;2.00;1.10;;;;;;;;;;6191616;23;20025;-81
2020/12/25 05:43:07;;;;;;;2.42;1.20;;;;;;;;;;6193461;23;20036;-81
2020/12/25 05:45:33;;;;;;;2.55;1.38;;;;;;;;;;6193068;23;20017;-81
2020/12/25 05:48:04;;;;;;;1.88;1.00;;;;;;;;;;6191972;23;20017;-81
2020/12/25 05:50:30;;;;;;;2.75;1.30;;;;;;;;;;6190951;23;20024;-81
2020/12/25 05:52:56;;;;;;;2.20;1.50;;;;;;;;;;6190857;23;20021;-81
2020/12/25 05:55:23;;;;;;;1.50;1.00;;;;;;;;;;6189086;23;20013;-82
2020/12/25 05:57:50;;;;;;;2.22;1.42;;;;;;;;;;6188642;23;20017;-80
2020/12/25 06:00:18;;;;;;;3.30;1.58;;;;;;;;;;6190001;23;20024;-80
2020/12/25 06:02:45;;;;;;;2.17;1.25;;;;;;;;;;6190195;23;20362;-80
2020/12/25 06:05:13;;;;;;;2.25;1.45;;;;;;;;;;6190181;23;20024;-80
2020/12/25 06:07:48;;;;;;;2.10;1.30;;;;;;;;;;6191136;23;20017;-80
2020/12/25 06:10:15;;;;;;;2.28;1.48;;;;;;;;;;6190070;23;20017;-80
2020/12/25 06:12:42;;;;;;;4.80;2.55;;;;;;;;;;6189722;23;20017;-80
2020/12/25 06:15:11;;;;;;;6.38;3.47;;;;;;;;;;6190686;23;20017;-81
2020/12/25 06:17:41;;;;;;;5.53;3.08;;;;;;;;;;6189618;23;20024;-80
2020/12/25 06:20:08;;;;;;;12.13;5.38;;;;;;;;;;6189600;23;20017;-80
2020/12/25 06:22:38;;;;;;;7.03;3.03;;;;;;;;;;6189366;23;20021;-80
2020/12/25 06:25:08;;;;;;;8.25;4.05;;;;;;;;;;6162913;23;20025;-80
2020/12/25 06:27:33;;;;;;;25.23;14.57;;;;;;;;;;6189926;23;20028;-80
2020/12/25 06:30:01;;;;;;;13.50;8.57;;;;;;;;;;6189628;23;20013;-80
2020/12/25 06:32:28;;;;;;;8.18;7.32;;;;;;;;;;6189783;23;20013;-80
2020/12/25 06:34:59;;;;;;;3.72;2.33;;;;;;;;;;6189493;23;20021;-80
2020/12/25 06:37:27;;;;;;;5.13;3.40;;;;;;;;;;6189527;23;20457;-81
2020/12/25 06:39:55;;;;;;;3.40;2.10;;;;;;;;;;6190193;23;20032;-81
2020/12/25 06:42:26;;;;;;;2.85;1.80;;;;;;;;;;6189816;23;20024;-81
2020/12/25 06:44:52;;;;;;;3.58;2.17;;;;;;;;;;6188679;23;20017;-81
2020/12/25 06:47:28;;;;;;;6.53;2.60;;;;;;;;;;6189107;23;20013;-81
2020/12/25 06:49:54;;;;;;;4.03;2.30;;;;;;;;;;6189768;23;20021;-80
2020/12/25 06:52:31;;;;;;;3.75;2.38;;;;;;;;;;6189570;23;20301;-81
2020/12/25 06:54:58;;;;;;;4.20;2.45;;;;;;;;;;6189000;23;20113;-80
2020/12/25 06:57:27;;;;;;;1.52;0.95;;;;;;;;;;6189958;23;20017;-80
2020/12/25 06:59:53;;;;;;;1.08;0.90;;;;;;;;;;6190107;23;20017;-80
2020/12/25 07:02:19;;;;;;;2.30;0.98;;;;;;;;;;6162948;23;20296;-81
2020/12/25 07:04:48;;;;;;;0.65;0.50;;;;;;;;;;6189100;23;20017;-80
2020/12/25 07:07:14;;;;;;;1.90;1.20;;;;;;;;;;6188947;23;20013;-81
2020/12/25 07:09:42;;;;;;;2.40;1.48;;;;;;;;;;6189629;23;20017;-80
2020/12/25 07:12:13;;;;;;;2.22;1.38;;;;;;;;;;6189140;23;20096;-81
2020/12/25 07:14:40;;;;;;;10.13;4.50;;;;;;;;;;6189363;23;20017;-80
2020/12/25 07:17:05;;;;;;;7.40;3.30;;;;;;;;;;6189098;23;20017;-80
2020/12/25 07:19:33;;;;;;;5.28;2.17;;;;;;;;;;6162648;23;20043;-80
2020/12/25 07:22:00;;;;;;;2.72;1.80;;;;;;;;;;6188992;23;20017;-80
2020/12/25 07:24:26;;;;;;;3.55;1.65;;;;;;;;;;6190035;23;20024;-80
2020/12/25 07:26:53;;;;;;;4.38;1.60;;;;;;;;;;6189458;23;20017;-80
2020/12/25 07:29:20;;;;;;;4.43;1.95;;;;;;;;;;6188841;23;20032;-80
2020/12/25 07:31:47;;;;;;;4.00;1.80;;;;;;;;;;6188817;23;20020;-80
2020/12/25 07:34:17;;;;;;;2.15;1.20;;;;;;;;;;6189780;23;20013;-80
2020/12/25 07:36:43;;;;;;;1.77;1.17;;;;;;;;;;6188828;23;20520;-81
2020/12/25 07:39:09;;;;;;;4.05;2.30;;;;;;;;;;6189280;23;20017;-80
2020/12/25 07:41:35;;;;;;;1011.35;334.85;;;;;;;;;;6189422;23;20327;-80
2020/12/25 07:44:02;;;;;;;1536.10;762.17;;;;;;;;;;6162463;23;20017;-80
2020/12/25 07:46:30;;;;;;;247.30;238.82;;;;;;;;;;6188784;23;20013;-80
2020/12/25 07:48:57;;;;;;;3.75;2.28;;;;;;;;;;6162697;23;20017;-81
2020/12/25 07:51:23;;;;;;;10.48;9.88;;;;;;;;;;6189627;23;20017;-81
2020/12/25 07:53:50;;;;;;;6.00;5.57;;;;;;;;;;6189987;23;20019;-80
2020/12/25 07:56:19;;;;;;;1999.90;999.90;;;;;;;;;;6189148;23;20013;-80
2020/12/25 07:58:48;;;;;;;1510.28;759.90;;;;;;;;;;6189244;23;20063;-80
2020/12/25 08:01:15;;;;;;;27.98;26.85;;;;;;;;;;6189384;23;20071;-81
2020/12/25 08:03:43;;;;;;;37.00;35.50;;;;;;;;;;6189430;23;20017;-80
2020/12/25 08:06:09;;;;;;;14.75;14.05;;;;;;;;;;6188940;23;20116;-81
2020/12/25 08:08:36;;;;;;;7.18;6.15;;;;;;;;;;6162423;23;20028;-81
2020/12/25 08:11:02;;;;;;;4.90;3.40;;;;;;;;;;6189123;23;20013;-80
2020/12/25 08:13:29;;;;;;;6.80;3.92;;;;;;;;;;6188062;23;20024;-81
2020/12/25 08:15:55;;;;;;;9.32;4.75;;;;;;;;;;6186306;23;20017;-82
2020/12/25 08:18:21;;;;;;;7.20;3.63;;;;;;;;;;6187572;23;20072;-82
2020/12/25 08:20:54;;;;;;;4.32;2.67;;;;;;;;;;6158544;23;20442;-82
2020/12/25 08:23:20;;;;;;;12.77;6.68;;;;;;;;;;6189088;23;20028;-81
2020/12/25 08:25:52;;;;;;;12.77;6.78;;;;;;;;;;6187095;23;20021;-81
2020/12/25 08:28:19;;;;;;;6.65;4.28;;;;;;;;;;6188565;23;20072;-83
2020/12/25 08:30:45;;;;;;;5.85;3.65;;;;;;;;;;6189010;23;20015;-82
2020/12/25 08:33:11;;;;;;;6.15;3.88;;;;;;;;;;6163692;23;20076;-80
2020/12/25 08:35:38;;;;;;;8.30;4.90;;;;;;;;;;6193644;23;20017;-83
2020/12/25 08:38:07;;;;;;;11.60;4.97;;;;;;;;;;6191864;23;20036;-82
2020/12/25 08:40:34;;;;;;;12.85;6.93;;;;;;;;;;6193165;23;20036;-83
2020/12/25 08:43:09;;;;;;;22.20;13.77;;;;;;;;;;6192604;23;20434;-83
2020/12/25 08:45:35;;;;;;;11.07;5.50;;;;;;;;;;6192268;23;20009;-82
2020/12/25 08:48:09;;;;;;;15.88;7.53;;;;;;;;;;6192868;23;20024;-82
2020/12/25 08:50:36;;;;;;;6.55;4.38;;;;;;;;;;6192330;23;20024;-82
2020/12/25 08:53:17;;;;;;;8.05;3.17;;;;;;;;;;6190493;23;20017;-81
2020/12/25 08:55:45;;;;;;;7.72;3.10;;;;;;;;;;6192282;23;20028;-82
2020/12/25 08:58:11;;;;;;;4.90;2.65;;;;;;;;;;6192430;23;20020;-82
2020/12/25 09:00:37;;;;;;;8.07;3.40;;;;;;;;;;6192645;23;20072;-82
2020/12/25 09:03:03;;;;;;;11.05;4.82;;;;;;;;;;6194088;23;20032;-81
2020/12/25 09:05:29;;;;;;;9.93;4.55;;;;;;;;;;6165760;23;20370;-81
2020/12/25 09:07:55;;;;;;;17.02;7.22;;;;;;;;;;6197925;23;20037;-83
2020/12/25 09:10:22;;;;;;;278.17;38.13;;;;;;;;;;6190933;23;20013;-81
2020/12/25 09:12:48;;;;;;;6.57;4.20;;;;;;;;;;6189934;23;20083;-81
2020/12/25 09:15:14;;;;;;;8.25;5.20;;;;;;;;;;6189829;23;20434;-81
2020/12/25 09:17:40;;;;;;;12.90;8.35;;;;;;;;;;6189299;23;20013;-81
2020/12/25 09:20:08;;;;;;;7.70;5.38;;;;;;;;;;6188781;23;20092;-81
2020/12/25 09:22:34;;;;;;;6.47;4.40;;;;;;;;;;6188884;23;20019;-81
2020/12/25 09:25:00;;;;;;;6.50;3.88;;;;;;;;;;6189232;23;20441;-82
2020/12/25 09:27:29;;;;;;;6.85;3.53;;;;;;;;;;6189541;23;20036;-82
2020/12/25 09:29:55;;;;;;;3.83;2.70;;;;;;;;;;6190070;23;20024;-82
2020/12/25 09:32:21;;;;;;;5.20;2.92;;;;;;;;;;6188264;23;20017;-81
2020/12/25 09:34:47;;;;;;;3.45;2.17;;;;;;;;;;6194488;23;20024;-81
2020/12/25 09:37:13;;;;;;;3.60;2.42;;;;;;;;;;6190333;23;20028;-82
2020/12/25 09:39:39;;;;;;;5.80;3.40;;;;;;;;;;6190684;23;20367;-82
2020/12/25 09:42:05;;;;;;;5.88;3.03;;;;;;;;;;6164435;23;20059;-83
2020/12/25 09:44:32;;;;;;;6.13;3.45;;;;;;;;;;6191102;23;20041;-81
2020/12/25 09:46:58;;;;;;;6.00;2.75;;;;;;;;;;6190595;23;20017;-82
2020/12/25 09:49:24;;;;;;;3.95;2.35;;;;;;;;;;6140755;23;20026;-82
2020/12/25 09:51:50;;;;;;;5.78;2.45;;;;;;;;;;6164243;23;20013;-81
2020/12/25 09:54:16;;;;;;;4.95;2.75;;;;;;;;;;6190799;23;20053;-81
2020/12/25 09:56:42;;;;;;;3.80;2.50;;;;;;;;;;6164611;23;20021;-80
2020/12/25 09:59:08;;;;;;;4.72;2.55;;;;;;;;;;6164577;23;20021;-82
2020/12/25 10:01:35;;;;;;;5.82;2.30;;;;;;;;;;6190499;23;20446;-83
2020/12/25 10:04:01;;;;;;;4.80;2.90;;;;;;;;;;6189934;23;20048;-80
2020/12/25 10:06:27;;;;;;;5.20;3.20;;;;;;;;;;6189552;23;20016;-81
2020/12/25 10:08:53;;;;;;;4.55;2.70;;;;;;;;;;6191403;23;20021;-81
2020/12/25 10:11:20;;;;;;;4.40;2.40;;;;;;;;;;6191254;23;20013;-81
2020/12/25 10:13:46;;;;;;;5.00;2.78;;;;;;;;;;6191257;23;20016;-81
2020/12/25 10:16:12;;;;;;;9.55;3.17;;;;;;;;;;6166230;23;20043;-81
2020/12/25 10:18:39;;;;;;;4.30;2.63;;;;;;;;;;6165363;23;20061;-81
2020/12/25 10:21:05;;;;;;;5.85;2.50;;;;;;;;;;6191686;23;20024;-81
2020/12/25 10:23:31;;;;;;;5.93;3.03;;;;;;;;;;6164374;23;20016;-81
2020/12/25 10:25:57;;;;;;;11.32;3.35;;;;;;;;;;6164484;23;20017;-82
2020/12/25 10:28:23;;;;;;;5.47;3.22;;;;;;;;;;6191290;23;20067;-81
2020/12/25 10:30:49;;;;;;;5.97;3.42;;;;;;;;;;6164646;23;20067;-81
2020/12/25 10:33:15;;;;;;;4.85;3.05;;;;;;;;;;6189452;23;20017;-81
2020/12/25 10:35:44;;;;;;;7.80;4.90;;;;;;;;;;6191386;23;20063;-81
2020/12/25 10:38:10;;;;;;;7.28;4.72;;;;;;;;;;6189991;23;20024;-81
2020/12/25 10:40:36;;;;;;;9.07;4.75;;;;;;;;;;6189846;23;20017;-81
2020/12/25 10:43:02;;;;;;;8.07;4.30;;;;;;;;;;6189383;23;20021;-81
2020/12/25 10:45:28;;;;;;;6.90;4.10;;;;;;;;;;6190379;23;20024;-82
2020/12/25 10:47:54;;;;;;;8.07;4.63;;;;;;;;;;6191930;23;20099;-82
2020/12/25 10:50:20;;;;;;;8.02;4.22;;;;;;;;;;6191688;23;20343;-80
2020/12/25 10:52:47;;;;;;;7.40;4.15;;;;;;;;;;6190790;23;20012;-81
2020/12/25 10:55:13;;;;;;;14.65;5.97;;;;;;;;;;6189823;23;20016;-81
2020/12/25 10:57:39;;;;;;;7.55;4.47;;;;;;;;;;6190946;23;20017;-81
2020/12/25 11:00:05;;;;;;;8.93;4.20;;;;;;;;;;6190254;23;20044;-81
2020/12/25 11:02:31;;;;;;;8.48;4.43;;;;;;;;;;6190556;23;20025;-81
2020/12/25 11:04:57;;;;;;;6.07;4.47;;;;;;;;;;6186089;23;20013;-81
2020/12/25 11:07:23;;;;;;;6.75;4.47;;;;;;;;;;6191677;23;20051;-82
2020/12/25 11:09:50;;;;;;;7.88;4.72;;;;;;;;;;6191153;23;20418;-82
2020/12/25 11:12:16;;;;;;;6.80;4.38;;;;;;;;;;6190535;23;20089;-81
2020/12/25 11:14:41;;;;;;;14.77;8.82;;;;;;;;;;6190316;23;20017;-81
2020/12/25 11:17:08;;;;;;;10.13;5.53;;;;;;;;;;6190523;23;20102;-81
2020/12/25 11:19:34;;;;;;;8.30;4.97;;;;;;;;;;6191755;23;20025;-83
2020/12/25 11:22:00;;;;;;;8.35;5.07;;;;;;;;;;6164781;23;20017;-81
2020/12/25 11:24:26;;;;;;;6.90;4.15;;;;;;;;;;6191644;23;20021;-81
2020/12/25 11:26:52;;;;;;;7.20;4.40;;;;;;;;;;6191456;23;20330;-80
2020/12/25 11:29:18;;;;;;;7.28;4.72;;;;;;;;;;6191628;23;20020;-82
2020/12/25 11:31:45;;;;;;;7.07;4.93;;;;;;;;;;6192180;23;20009;-82
2020/12/25 11:34:11;;;;;;;7.53;4.90;;;;;;;;;;6191874;23;20064;-80
2020/12/25 11:36:38;;;;;;;6.20;4.25;;;;;;;;;;6191983;23;20013;-82
2020/12/25 11:39:06;;;;;;;6.35;4.53;;;;;;;;;;6190547;23;20017;-82
2020/12/25 11:41:32;;;;;;;9.15;5.38;;;;;;;;;;6191241;23;20023;-82
2020/12/25 11:44:00;;;;;;;8.52;4.93;;;;;;;;;;6166564;23;20347;-82
2020/12/25 11:46:26;;;;;;;9.82;5.20;;;;;;;;;;6192922;23;20021;-81
2020/12/25 11:48:53;;;;;;;8.38;5.20;;;;;;;;;;6191094;23;20017;-80
2020/12/25 11:51:21;;;;;;;7.57;5.30;;;;;;;;;;6190437;23;20013;-81
2020/12/25 11:53:47;;;;;;;8.27;5.65;;;;;;;;;;6190627;23;20017;-81
2020/12/25 11:56:13;;;;;;;10.15;5.85;;;;;;;;;;6188405;23;20019;-80
2020/12/25 11:58:39;;;;;;;8.32;4.78;;;;;;;;;;6188745;23;20469;-81
2020/12/25 12:01:06;;;;;;;7.38;5.15;;;;;;;;;;6189051;23;20017;-80
2020/12/25 12:03:32;;;;;;;7.70;5.45;;;;;;;;;;6186711;23;20021;-80
2020/12/25 12:05:59;;;;;;;7.47;4.95;;;;;;;;;;6189765;23;20013;-80
2020/12/25 12:08:24;;;;;;;7.93;5.50;;;;;;;;;;6187830;23;20048;-81
2020/12/25 12:10:51;;;;;;;8.02;5.50;;;;;;;;;;6189460;23;20197;-81
2020/12/25 12:13:17;;;;;;;7.57;5.10;;;;;;;;;;6188837;23;20024;-81
2020/12/25 12:15:43;;;;;;;9.43;6.20;;;;;;;;;;6189954;23;20013;-81
2020/12/25 12:18:10;;;;;;;8.77;5.85;;;;;;;;;;6189701;23;20331;-80
2020/12/25 12:20:36;;;;;;;8.93;5.47;;;;;;;;;;6191859;23;20017;-80
2020/12/25 12:23:03;;;;;;;7.97;5.40;;;;;;;;;;6190993;23;20021;-80
2020/12/25 12:25:29;;;;;;;7.00;4.97;;;;;;;;;;6192544;23;20024;-80
2020/12/25 12:27:55;;;;;;;8.68;5.45;;;;;;;;;;6190878;23;20017;-80
2020/12/25 12:30:21;;;;;;;6.10;4.03;;;;;;;;;;6193861;23;20013;-80
2020/12/25 12:32:47;;;;;;;8.32;5.75;;;;;;;;;;6193456;23;20024;-80
2020/12/25 12:35:14;;;;;;;7.68;5.05;;;;;;;;;;6193848;23;20013;-81
2020/12/25 12:37:40;;;;;;;7.75;5.18;;;;;;;;;;6192230;23;20024;-81
2020/12/25 12:40:07;;;;;;;7.57;5.30;;;;;;;;;;6194048;23;20088;-81
2020/12/25 12:42:33;;;;;;;8.30;5.72;;;;;;;;;;6191490;23;20017;-81
2020/12/25 12:45:00;;;;;;;10.23;5.22;;;;;;;;;;6193529;23;20024;-81
2020/12/25 12:47:28;;;;;;;7.18;4.75;;;;;;;;;;6193877;23;20017;-81
2020/12/25 12:49:54;;;;;;;7.57;4.63;;;;;;;;;;6193576;23;20454;-81
2020/12/25 12:52:20;;;;;;;8.70;5.00;;;;;;;;;;6193326;23;20017;-81
2020/12/25 12:54:46;;;;;;;8.13;5.55;;;;;;;;;;6193581;23;20036;-81
2020/12/25 12:57:12;;;;;;;8.68;5.97;;;;;;;;;;6190857;23;20434;-80
2020/12/25 12:59:38;;;;;;;14.10;7.88;;;;;;;;;;6191480;23;20088;-80
2020/12/25 13:02:04;;;;;;;8.57;5.25;;;;;;;;;;6192124;23;20020;-80
2020/12/25 13:04:30;;;;;;;10.38;7.38;;;;;;;;;;6188553;23;20017;-80
2020/12/25 13:06:56;;;;;;;8.93;6.43;;;;;;;;;;6188690;23;20021;-80
2020/12/25 13:09:23;;;;;;;7.80;6.10;;;;;;;;;;6188908;23;20020;-80
2020/12/25 13:11:49;;;;;;;7.82;6.03;;;;;;;;;;6189013;23;20017;-81
2020/12/25 13:14:15;;;;;;;8.38;5.97;;;;;;;;;;6190249;23;20115;-82
2020/12/25 13:16:41;;;;;;;8.15;5.68;;;;;;;;;;6190420;23;20024;-81
2020/12/25 13:19:07;;;;;;;9.65;6.35;;;;;;;;;;6190339;23;20373;-80
2020/12/25 13:21:33;;;;;;;11.05;7.03;;;;;;;;;;6191293;23;20017;-80
2020/12/25 13:23:59;;;;;;;9.27;7.20;;;;;;;;;;6190349;23;20319;-81
2020/12/25 13:26:26;;;;;;;11.65;7.80;;;;;;;;;;6191036;23;20017;-81
2020/12/25 13:28:52;;;;;;;11.70;7.28;;;;;;;;;;6191745;23;20013;-81
2020/12/25 13:31:19;;;;;;;12.52;8.05;;;;;;;;;;6191952;23;20017;-81
2020/12/25 13:33:46;;;;;;;12.10;8.15;;;;;;;;;;6193129;23;20013;-80
2020/12/25 13:36:13;;;;;;;12.30;6.78;;;;;;;;;;6193842;23;20024;-81
2020/12/25 13:38:39;;;;;;;13.32;7.32;;;;;;;;;;6193763;23;20032;-82
2020/12/25 13:41:06;;;;;;;14.25;7.47;;;;;;;;;;6143636;23;20020;-82
2020/12/25 13:43:33;;;;;;;13.38;8.07;;;;;;;;;;6167445;23;20017;-81
2020/12/25 13:45:59;;;;;;;14.73;8.18;;;;;;;;;;6192942;23;20017;-81
2020/12/25 13:48:27;;;;;;;15.27;7.78;;;;;;;;;;6166697;23;20020;-81
2020/12/25 13:50:53;;;;;;;11.48;7.07;;;;;;;;;;6197692;23;20462;-81
2020/12/25 13:53:19;;;;;;;13.50;7.85;;;;;;;;;;6164705;23;20489;-81
2020/12/25 13:55:45;;;;;;;13.02;7.50;;;;;;;;;;6164767;23;20034;-81
2020/12/25 13:58:11;;;;;;;15.63;8.75;;;;;;;;;;6165959;23;20017;-82
2020/12/25 14:00:38;;;;;;;12.93;7.72;;;;;;;;;;6191593;23;20023;-82
2020/12/25 14:03:04;;;;;;;10.25;6.72;;;;;;;;;;6166013;23;20045;-82
2020/12/25 14:05:30;;;;;;;11.35;7.30;;;;;;;;;;6193586;23;20013;-84
2020/12/25 14:07:56;;;;;;;9.23;6.50;;;;;;;;;;6193198;23;20048;-84
2020/12/25 14:10:22;;;;;;;10.25;6.88;;;;;;;;;;6191445;23;20013;-84
2020/12/25 14:12:48;;;;;;;8.95;6.38;;;;;;;;;;6192373;23;20288;-84
2020/12/25 14:15:15;;;;;;;10.43;6.40;;;;;;;;;;6190636;23;20020;-84
2020/12/25 14:17:43;;;;;;;11.48;6.75;;;;;;;;;;6192483;23;20017;-84
2020/12/25 14:20:09;;;;;;;10.85;6.90;;;;;;;;;;6191673;23;20017;-82
2020/12/25 14:22:35;;;;;;;11.27;7.32;;;;;;;;;;6190671;23;20021;-83
2020/12/25 14:25:01;;;;;;;9.43;6.13;;;;;;;;;;6191329;23;20414;-82
2020/12/25 14:27:27;;;;;;;10.25;6.38;;;;;;;;;;6191788;23;20037;-82
2020/12/25 14:29:53;;;;;;;8.23;5.53;;;;;;;;;;6192222;23;20021;-82
2020/12/25 14:32:19;;;;;;;10.48;5.82;;;;;;;;;;6192146;23;20013;-81
2020/12/25 14:34:46;;;;;;;12.05;6.22;;;;;;;;;;6163764;23;20473;-81
2020/12/25 14:37:12;;;;;;;10.57;5.78;;;;;;;;;;6189893;23;20013;-81